sensor_id;sensor_type;location;lat;lon;timestamp;pressure;altitude;pressure_sealevel;temperature;humidity
77572;BME280;67214;47.454;18.966;2023-02-12T00:01:19;101486.18;;;4.25;69.74
77572;BME280;67214;47.454;18.966;2023-02-12T00:03:47;101474.78;;;4.26;69.59
77572;BME280;67214;47.454;18.966;2023-02-12T00:06:15;101473.20;;;4.20;70.05
77572;BME280;67214;47.454;18.966;2023-02-12T00:08:43;101476.91;;;4.14;70.20
77572;BME280;67214;47.454;18.966;2023-02-12T00:11:16;101480.88;;;4.13;70.59
77572;BME280;67214;47.454;18.966;2023-02-12T00:13:41;101491.80;;;4.14;70.48
77572;BME280;67214;47.454;18.966;2023-02-12T00:16:11;101499.45;;;4.20;70.48
77572;BME280;67214;47.454;18.966;2023-02-12T00:18:39;101481.19;;;4.17;70.53
77572;BME280;67214;47.454;18.966;2023-02-12T00:21:07;101477.50;;;4.09;70.76
77572;BME280;67214;47.454;18.966;2023-02-12T00:23:36;101484.03;;;4.11;71.02
77572;BME280;67214;47.454;18.966;2023-02-12T00:26:14;101486.13;;;4.13;71.08
77572;BME280;67214;47.454;18.966;2023-02-12T00:28:42;101491.04;;;4.10;71.36
77572;BME280;67214;47.454;18.966;2023-02-12T00:31:12;101492.41;;;4.22;71.33
77572;BME280;67214;47.454;18.966;2023-02-12T00:33:41;101500.31;;;4.20;71.33
77572;BME280;67214;47.454;18.966;2023-02-12T00:36:09;101492.36;;;4.24;71.31
77572;BME280;67214;47.454;18.966;2023-02-12T00:38:38;101483.17;;;4.24;71.31
77572;BME280;67214;47.454;18.966;2023-02-12T00:41:05;101477.02;;;4.11;71.65
77572;BME280;67214;47.454;18.966;2023-02-12T00:43:33;101481.30;;;4.14;71.77
77572;BME280;67214;47.454;18.966;2023-02-12T00:46:02;101481.30;;;4.14;71.83
77572;BME280;67214;47.454;18.966;2023-02-12T00:48:30;101478.07;;;4.19;71.79
77572;BME280;67214;47.454;18.966;2023-02-12T00:50:58;101467.46;;;4.22;71.79
77572;BME280;67214;47.454;18.966;2023-02-12T00:53:25;101481.56;;;4.19;71.87
77572;BME280;67214;47.454;18.966;2023-02-12T00:55:53;101464.53;;;4.18;72.06
77572;BME280;67214;47.454;18.966;2023-02-12T00:58:21;101466.64;;;4.20;72.15
77572;BME280;67214;47.454;18.966;2023-02-12T01:00:49;101474.02;;;4.22;72.15
77572;BME280;67214;47.454;18.966;2023-02-12T01:03:16;101468.81;;;4.20;72.15
77572;BME280;67214;47.454;18.966;2023-02-12T01:05:43;101470.20;;;4.19;72.30
77572;BME280;67214;47.454;18.966;2023-02-12T01:08:12;101476.98;;;4.25;72.12
77572;BME280;67214;47.454;18.966;2023-02-12T01:10:42;101476.65;;;4.22;72.16
77572;BME280;67214;47.454;18.966;2023-02-12T01:13:13;101464.64;;;4.15;72.34
77572;BME280;67214;47.454;18.966;2023-02-12T01:15:41;101470.94;;;4.09;72.49
77572;BME280;67214;47.454;18.966;2023-02-12T01:18:10;101461.97;;;4.03;72.67
77572;BME280;67214;47.454;18.966;2023-02-12T01:20:39;101448.59;;;3.98;72.81
77572;BME280;67214;47.454;18.966;2023-02-12T01:23:06;101473.66;;;3.93;72.97
77572;BME280;67214;47.454;18.966;2023-02-12T01:25:34;101452.77;;;3.90;73.09
77572;BME280;67214;47.454;18.966;2023-02-12T01:28:01;101448.16;;;3.84;73.39
77572;BME280;67214;47.454;18.966;2023-02-12T01:30:29;101454.83;;;3.81;73.52
77572;BME280;67214;47.454;18.966;2023-02-12T01:32:56;101456.58;;;3.80;73.60
77572;BME280;67214;47.454;18.966;2023-02-12T01:35:25;101454.17;;;3.74;73.88
77572;BME280;67214;47.454;18.966;2023-02-12T01:37:53;101450.44;;;3.81;73.78
77572;BME280;67214;47.454;18.966;2023-02-12T01:40:20;101439.30;;;3.74;73.99
77572;BME280;67214;47.454;18.966;2023-02-12T01:42:48;101438.33;;;3.77;73.99
77572;BME280;67214;47.454;18.966;2023-02-12T01:46:04;101436.49;;;3.79;73.99
77572;BME280;67214;47.454;18.966;2023-02-12T01:47:46;101440.97;;;3.90;74.06
77572;BME280;67214;47.454;18.966;2023-02-12T01:50:16;101428.70;;;3.91;73.84
77572;BME280;67214;47.454;18.966;2023-02-12T01:52:47;101433.73;;;3.97;73.84
77572;BME280;67214;47.454;18.966;2023-02-12T01:55:16;101435.91;;;3.97;73.86
77572;BME280;67214;47.454;18.966;2023-02-12T01:57:46;101445.51;;;3.98;73.83
77572;BME280;67214;47.454;18.966;2023-02-12T02:00:17;101423.69;;;3.96;73.98
77572;BME280;67214;47.454;18.966;2023-02-12T02:02:48;101434.75;;;3.93;73.99
77572;BME280;67214;47.454;18.966;2023-02-12T02:05:21;101433.69;;;3.85;74.21
77572;BME280;67214;47.454;18.966;2023-02-12T02:07:46;101433.69;;;3.85;74.41
77572;BME280;67214;47.454;18.966;2023-02-12T02:10:14;101428.91;;;3.98;74.04
77572;BME280;67214;47.454;18.966;2023-02-12T02:12:42;101435.12;;;3.95;74.06
77572;BME280;67214;47.454;18.966;2023-02-12T02:15:29;101442.77;;;4.01;73.94
77572;BME280;67214;47.454;18.966;2023-02-12T02:18:05;101447.11;;;3.89;74.21
77572;BME280;67214;47.454;18.966;2023-02-12T02:31:45;101443.62;;;3.62;75.32
77572;BME280;67214;47.454;18.966;2023-02-12T02:34:34;101451.41;;;3.79;75.09
77572;BME280;67214;47.454;18.966;2023-02-12T02:37:18;101451.16;;;3.86;75.04
77572;BME280;67214;47.454;18.966;2023-02-12T02:39:54;101442.46;;;3.84;75.06
77572;BME280;67214;47.454;18.966;2023-02-12T02:42:38;101459.12;;;3.96;74.93
77572;BME280;67214;47.454;18.966;2023-02-12T02:45:14;101460.39;;;3.98;74.81
77572;BME280;67214;47.454;18.966;2023-02-12T02:50:20;101476.18;;;3.96;74.90
77572;BME280;67214;47.454;18.966;2023-02-12T02:53:01;101465.75;;;3.95;74.94
77572;BME280;67214;47.454;18.966;2023-02-12T02:55:36;101473.48;;;3.99;74.85
77572;BME280;67214;47.454;18.966;2023-02-12T02:58:14;101462.77;;;4.05;74.67
77572;BME280;67214;47.454;18.966;2023-02-12T03:05:49;101456.77;;;4.15;74.26
77572;BME280;67214;47.454;18.966;2023-02-12T03:08:27;101468.63;;;4.13;74.44
77572;BME280;67214;47.454;18.966;2023-02-12T03:11:00;101479.68;;;4.10;74.64
77572;BME280;67214;47.454;18.966;2023-02-12T03:13:44;101487.89;;;4.12;74.51
77572;BME280;67214;47.454;18.966;2023-02-12T03:16:33;101480.55;;;4.10;74.53
77572;BME280;67214;47.454;18.966;2023-02-12T03:18:52;101484.06;;;4.09;74.57
77572;BME280;67214;47.454;18.966;2023-02-12T03:21:13;101484.63;;;4.19;74.22
77572;BME280;67214;47.454;18.966;2023-02-12T03:23:54;101491.13;;;4.20;74.31
77572;BME280;67214;47.454;18.966;2023-02-12T03:26:24;101493.22;;;4.11;74.56
77572;BME280;67214;47.454;18.966;2023-02-12T03:28:48;101497.45;;;4.15;74.41
77572;BME280;67214;47.454;18.966;2023-02-12T03:36:59;101513.25;;;4.13;74.47
77572;BME280;67214;47.454;18.966;2023-02-12T03:39:57;101500.12;;;4.13;74.48
77572;BME280;67214;47.454;18.966;2023-02-12T03:42:43;101522.13;;;4.09;74.54
77572;BME280;67214;47.454;18.966;2023-02-12T03:48:27;101513.77;;;4.11;74.31
77572;BME280;67214;47.454;18.966;2023-02-12T03:51:20;101516.77;;;4.12;74.16
77572;BME280;67214;47.454;18.966;2023-02-12T03:53:32;101529.11;;;4.10;74.19
77572;BME280;67214;47.454;18.966;2023-02-12T03:56:15;101530.34;;;4.12;74.09
77572;BME280;67214;47.454;18.966;2023-02-12T03:58:40;101537.77;;;4.12;74.03
77572;BME280;67214;47.454;18.966;2023-02-12T04:01:08;101537.73;;;4.14;73.93
77572;BME280;67214;47.454;18.966;2023-02-12T04:03:37;101528.86;;;4.18;73.70
77572;BME280;67214;47.454;18.966;2023-02-12T04:06:14;101532.14;;;4.11;73.97
77572;BME280;67214;47.454;18.966;2023-02-12T04:08:33;101535.25;;;4.09;73.99
77572;BME280;67214;47.454;18.966;2023-02-12T04:16:28;101555.59;;;4.16;73.89
77572;BME280;67214;47.454;18.966;2023-02-12T04:18:54;101553.04;;;4.14;73.84
77572;BME280;67214;47.454;18.966;2023-02-12T04:26:41;101569.16;;;4.30;73.36
77572;BME280;67214;47.454;18.966;2023-02-12T04:29:31;101579.00;;;4.37;73.09
77572;BME280;67214;47.454;18.966;2023-02-12T04:32:14;101585.19;;;4.36;73.01
77572;BME280;67214;47.454;18.966;2023-02-12T04:34:49;101584.81;;;4.33;73.04
77572;BME280;67214;47.454;18.966;2023-02-12T04:37:33;101591.62;;;4.26;73.20
77572;BME280;67214;47.454;18.966;2023-02-12T04:40:01;101583.44;;;4.21;73.32
77572;BME280;67214;47.454;18.966;2023-02-12T04:42:29;101588.58;;;4.11;73.51
77572;BME280;67214;47.454;18.966;2023-02-12T04:44:56;101595.91;;;4.15;73.30
77572;BME280;67214;47.454;18.966;2023-02-12T04:47:25;101593.91;;;4.08;73.63
77572;BME280;67214;47.454;18.966;2023-02-12T04:49:52;101607.86;;;4.10;73.52
77572;BME280;67214;47.454;18.966;2023-02-12T04:52:20;101614.21;;;4.03;73.67
77572;BME280;67214;47.454;18.966;2023-02-12T04:54:47;101613.83;;;4.01;73.88
77572;BME280;67214;47.454;18.966;2023-02-12T04:57:15;101624.78;;;4.00;73.96
77572;BME280;67214;47.454;18.966;2023-02-12T04:59:42;101621.25;;;4.01;74.01
77572;BME280;67214;47.454;18.966;2023-02-12T05:02:10;101635.29;;;3.86;74.48
77572;BME280;67214;47.454;18.966;2023-02-12T05:04:37;101622.62;;;3.85;74.54
77572;BME280;67214;47.454;18.966;2023-02-12T05:07:06;101628.83;;;3.83;74.62
77572;BME280;67214;47.454;18.966;2023-02-12T05:09:34;101644.73;;;3.77;74.86
77572;BME280;67214;47.454;18.966;2023-02-12T05:12:01;101633.02;;;3.73;75.07
77572;BME280;67214;47.454;18.966;2023-02-12T05:14:30;101636.34;;;3.64;75.26
77572;BME280;67214;47.454;18.966;2023-02-12T05:16:58;101651.70;;;3.78;75.22
77572;BME280;67214;47.454;18.966;2023-02-12T05:19:25;101666.55;;;3.79;75.12
77572;BME280;67214;47.454;18.966;2023-02-12T05:21:52;101668.53;;;3.85;75.08
77572;BME280;67214;47.454;18.966;2023-02-12T05:24:20;101668.77;;;3.78;75.27
77572;BME280;67214;47.454;18.966;2023-02-12T05:26:48;101678.39;;;3.77;75.31
77572;BME280;67214;47.454;18.966;2023-02-12T05:29:16;101690.34;;;3.71;75.54
77572;BME280;67214;47.454;18.966;2023-02-12T05:31:44;101693.73;;;3.60;75.78
77572;BME280;67214;47.454;18.966;2023-02-12T05:34:12;101688.28;;;3.51;76.05
77572;BME280;67214;47.454;18.966;2023-02-12T05:36:40;101692.92;;;3.58;76.31
77572;BME280;67214;47.454;18.966;2023-02-12T05:39:09;101692.39;;;3.61;76.17
77572;BME280;67214;47.454;18.966;2023-02-12T05:41:36;101702.80;;;3.48;76.45
77572;BME280;67214;47.454;18.966;2023-02-12T05:44:04;101696.66;;;3.49;76.41
77572;BME280;67214;47.454;18.966;2023-02-12T05:46:32;101702.44;;;3.46;76.73
77572;BME280;67214;47.454;18.966;2023-02-12T05:49:00;101706.19;;;3.36;76.73
77572;BME280;67214;47.454;18.966;2023-02-12T05:51:28;101706.61;;;3.37;76.64
77572;BME280;67214;47.454;18.966;2023-02-12T05:54:00;101714.67;;;3.29;76.73
77572;BME280;67214;47.454;18.966;2023-02-12T05:56:31;101718.63;;;3.27;76.54
77572;BME280;67214;47.454;18.966;2023-02-12T05:59:02;101724.41;;;3.06;76.59
77572;BME280;67214;47.454;18.966;2023-02-12T06:01:35;101732.47;;;2.81;77.52
77572;BME280;67214;47.454;18.966;2023-02-12T06:04:05;101742.92;;;2.62;78.12
77572;BME280;67214;47.454;18.966;2023-02-12T06:06:33;101744.86;;;2.54;78.75
77572;BME280;67214;47.454;18.966;2023-02-12T06:09:01;101745.31;;;2.32;79.00
77572;BME280;67214;47.454;18.966;2023-02-12T06:11:29;101753.14;;;2.34;79.52
77572;BME280;67214;47.454;18.966;2023-02-12T06:13:56;101752.42;;;2.27;79.90
77572;BME280;67214;47.454;18.966;2023-02-12T06:16:25;101746.05;;;2.60;79.48
77572;BME280;67214;47.454;18.966;2023-02-12T06:18:55;101757.20;;;2.68;78.76
77572;BME280;67214;47.454;18.966;2023-02-12T06:21:23;101758.59;;;2.65;79.36
77572;BME280;67214;47.454;18.966;2023-02-12T06:23:52;101759.67;;;2.74;79.03
77572;BME280;67214;47.454;18.966;2023-02-12T06:26:20;101765.76;;;2.94;78.70
77572;BME280;67214;47.454;18.966;2023-02-12T06:28:48;101770.77;;;3.04;77.85
77572;BME280;67214;47.454;18.966;2023-02-12T06:31:25;101766.28;;;3.09;78.02
77572;BME280;67214;47.454;18.966;2023-02-12T06:33:55;101767.66;;;3.24;77.29
77572;BME280;67214;47.454;18.966;2023-02-12T06:36:23;101775.59;;;3.03;78.04
77572;BME280;67214;47.454;18.966;2023-02-12T06:38:51;101785.20;;;2.85;78.49
77572;BME280;67214;47.454;18.966;2023-02-12T06:41:19;101771.96;;;2.72;78.88
77572;BME280;67214;47.454;18.966;2023-02-12T06:43:47;101768.50;;;2.70;79.22
77572;BME280;67214;47.454;18.966;2023-02-12T06:46:15;101760.25;;;2.69;79.23
77572;BME280;67214;47.454;18.966;2023-02-12T06:48:42;101778.19;;;2.66;79.65
77572;BME280;67214;47.454;18.966;2023-02-12T06:51:17;101787.23;;;2.72;79.53
77572;BME280;67214;47.454;18.966;2023-02-12T06:53:41;101788.91;;;2.75;79.41
77572;BME280;67214;47.454;18.966;2023-02-12T06:56:10;101790.66;;;2.74;79.57
77572;BME280;67214;47.454;18.966;2023-02-12T06:58:40;101801.20;;;2.73;79.76
77572;BME280;67214;47.454;18.966;2023-02-12T07:01:13;101812.81;;;2.80;79.62
77572;BME280;67214;47.454;18.966;2023-02-12T07:04:03;101815.03;;;2.78;79.66
77572;BME280;67214;47.454;18.966;2023-02-12T07:06:11;101816.89;;;3.11;79.08
77572;BME280;67214;47.454;18.966;2023-02-12T07:08:38;101821.48;;;3.21;78.75
77572;BME280;67214;47.454;18.966;2023-02-12T07:11:06;101829.52;;;3.31;78.29
77572;BME280;67214;47.454;18.966;2023-02-12T07:13:34;101819.77;;;3.38;77.75
77572;BME280;67214;47.454;18.966;2023-02-12T07:16:06;101827.11;;;3.41;77.78
77572;BME280;67214;47.454;18.966;2023-02-12T07:18:34;101836.55;;;3.48;77.74
77572;BME280;67214;47.454;18.966;2023-02-12T07:21:03;101840.52;;;3.64;77.01
77572;BME280;67214;47.454;18.966;2023-02-12T07:23:31;101839.89;;;3.71;76.89
77572;BME280;67214;47.454;18.966;2023-02-12T07:26:06;101852.95;;;3.74;76.65
77572;BME280;67214;47.454;18.966;2023-02-12T07:28:30;101862.03;;;3.79;76.63
77572;BME280;67214;47.454;18.966;2023-02-12T07:31:12;101855.84;;;3.97;76.07
77572;BME280;67214;47.454;18.966;2023-02-12T07:33:40;101857.40;;;4.04;76.07
77572;BME280;67214;47.454;18.966;2023-02-12T07:36:11;101869.00;;;4.28;74.97
77572;BME280;67214;47.454;18.966;2023-02-12T07:38:39;101866.66;;;4.50;74.00
77572;BME280;67214;47.454;18.966;2023-02-12T07:41:18;101858.97;;;4.58;73.33
77572;BME280;67214;47.454;18.966;2023-02-12T07:43:47;101864.73;;;4.71;73.16
77572;BME280;67214;47.454;18.966;2023-02-12T07:46:24;101865.72;;;4.82;72.79
77572;BME280;67214;47.454;18.966;2023-02-12T07:48:53;101863.30;;;5.05;71.85
77572;BME280;67214;47.454;18.966;2023-02-12T07:51:21;101867.27;;;5.46;70.30
77572;BME280;67214;47.454;18.966;2023-02-12T07:53:48;101877.63;;;5.63;69.59
77572;BME280;67214;47.454;18.966;2023-02-12T07:56:23;101874.14;;;5.91;68.11
77572;BME280;67214;47.454;18.966;2023-02-12T07:58:48;101876.36;;;6.03;68.27
77572;BME280;67214;47.454;18.966;2023-02-12T08:01:26;101867.80;;;6.21;68.03
77572;BME280;67214;47.454;18.966;2023-02-12T08:03:50;101876.00;;;6.25;67.51
77572;BME280;67214;47.454;18.966;2023-02-12T08:06:24;101879.64;;;6.46;66.34
77572;BME280;67214;47.454;18.966;2023-02-12T08:08:50;101887.93;;;6.60;65.91
77572;BME280;67214;47.454;18.966;2023-02-12T08:11:18;101883.98;;;6.72;65.36
77572;BME280;67214;47.454;18.966;2023-02-12T08:13:46;101888.09;;;6.67;65.04
77572;BME280;67214;47.454;18.966;2023-02-12T08:16:16;101888.89;;;6.81;64.68
77572;BME280;67214;47.454;18.966;2023-02-12T08:18:44;101882.13;;;6.85;64.77
77572;BME280;67214;47.454;18.966;2023-02-12T08:21:17;101891.55;;;6.92;65.61
77572;BME280;67214;47.454;18.966;2023-02-12T08:23:45;101892.05;;;7.02;64.84
77572;BME280;67214;47.454;18.966;2023-02-12T08:26:17;101891.52;;;7.16;63.89
77572;BME280;67214;47.454;18.966;2023-02-12T08:28:59;101896.33;;;7.28;62.94
77572;BME280;67214;47.454;18.966;2023-02-12T08:31:24;101898.08;;;7.39;62.86
77572;BME280;67214;47.454;18.966;2023-02-12T08:33:53;101898.63;;;7.47;62.70
77572;BME280;67214;47.454;18.966;2023-02-12T08:36:23;101902.55;;;7.59;62.79
77572;BME280;67214;47.454;18.966;2023-02-12T08:38:52;101895.59;;;7.68;62.20
77572;BME280;67214;47.454;18.966;2023-02-12T08:41:22;101907.42;;;7.69;62.16
77572;BME280;67214;47.454;18.966;2023-02-12T08:43:54;101901.20;;;7.70;62.15
77572;BME280;67214;47.454;18.966;2023-02-12T08:46:26;101912.94;;;7.63;61.39
77572;BME280;67214;47.454;18.966;2023-02-12T08:49:04;101905.47;;;7.63;61.13
77572;BME280;67214;47.454;18.966;2023-02-12T08:51:30;101901.96;;;7.84;61.06
77572;BME280;67214;47.454;18.966;2023-02-12T08:54:01;101897.27;;;7.80;61.84
77572;BME280;67214;47.454;18.966;2023-02-12T08:56:31;101913.94;;;7.82;61.39
77572;BME280;67214;47.454;18.966;2023-02-12T08:59:01;101916.58;;;7.92;60.33
77572;BME280;67214;47.454;18.966;2023-02-12T09:01:31;101922.80;;;8.02;59.50
77572;BME280;67214;47.454;18.966;2023-02-12T09:04:01;101923.58;;;8.46;58.19
77572;BME280;67214;47.454;18.966;2023-02-12T09:06:30;101919.56;;;8.47;58.11
77572;BME280;67214;47.454;18.966;2023-02-12T09:08:58;101931.30;;;8.60;58.13
77572;BME280;67214;47.454;18.966;2023-02-12T09:11:27;101924.23;;;8.61;57.04
77572;BME280;67214;47.454;18.966;2023-02-12T09:14:01;101929.31;;;8.65;57.03
77572;BME280;67214;47.454;18.966;2023-02-12T09:16:31;101939.81;;;8.77;57.00
77572;BME280;67214;47.454;18.966;2023-02-12T09:19:00;101943.06;;;8.83;56.59
77572;BME280;67214;47.454;18.966;2023-02-12T09:21:28;101944.73;;;8.76;57.66
77572;BME280;67214;47.454;18.966;2023-02-12T09:23:55;101943.98;;;8.82;56.97
77572;BME280;67214;47.454;18.966;2023-02-12T09:26:24;101947.09;;;8.92;56.37
77572;BME280;67214;47.454;18.966;2023-02-12T09:28:53;101949.33;;;8.91;56.86
77572;BME280;67214;47.454;18.966;2023-02-12T09:31:23;101953.59;;;8.75;57.48
77572;BME280;67214;47.454;18.966;2023-02-12T09:33:56;101953.19;;;8.84;57.85
77572;BME280;67214;47.454;18.966;2023-02-12T09:36:23;101956.86;;;9.00;56.96
77572;BME280;67214;47.454;18.966;2023-02-12T09:38:50;101956.72;;;9.03;57.25
77572;BME280;67214;47.454;18.966;2023-02-12T09:44:20;101951.98;;;9.20;56.96
77572;BME280;67214;47.454;18.966;2023-02-12T09:46:58;101961.67;;;9.48;56.48
77572;BME280;67214;47.454;18.966;2023-02-12T09:50:00;101952.66;;;9.52;56.29
77572;BME280;67214;47.454;18.966;2023-02-12T09:52:26;101957.12;;;9.60;55.65
77572;BME280;67214;47.454;18.966;2023-02-12T09:54:55;101963.09;;;9.55;55.41
77572;BME280;67214;47.454;18.966;2023-02-12T09:57:34;101961.17;;;9.40;56.21
77572;BME280;67214;47.454;18.966;2023-02-12T10:00:14;101965.53;;;9.60;56.03
77572;BME280;67214;47.454;18.966;2023-02-12T10:02:40;101962.31;;;9.80;56.17
77572;BME280;67214;47.454;18.966;2023-02-12T10:05:16;101962.14;;;10.02;54.84
77572;BME280;67214;47.454;18.966;2023-02-12T10:13:23;101971.41;;;10.38;53.36
77572;BME280;67214;47.454;18.966;2023-02-12T10:15:53;101969.45;;;10.42;53.62
77572;BME280;67214;47.454;18.966;2023-02-12T10:21:12;101975.91;;;10.62;53.11
77572;BME280;67214;47.454;18.966;2023-02-12T10:26:19;101976.80;;;11.04;52.38
77572;BME280;67214;47.454;18.966;2023-02-12T10:28:43;101983.78;;;11.13;51.31
77572;BME280;67214;47.454;18.966;2023-02-12T10:31:18;101984.38;;;11.27;51.80
77572;BME280;67214;47.454;18.966;2023-02-12T10:33:47;101987.23;;;11.40;51.67
77572;BME280;67214;47.454;18.966;2023-02-12T10:36:36;101991.22;;;11.71;50.05
77572;BME280;67214;47.454;18.966;2023-02-12T10:39:01;101996.63;;;11.94;49.84
77572;BME280;67214;47.454;18.966;2023-02-12T10:41:30;101991.17;;;12.11;48.92
77572;BME280;67214;47.454;18.966;2023-02-12T10:43:58;101979.82;;;12.23;48.94
77572;BME280;67214;47.454;18.966;2023-02-12T10:46:29;101986.37;;;12.18;48.65
77572;BME280;67214;47.454;18.966;2023-02-12T10:48:59;101979.74;;;12.25;48.50
77572;BME280;67214;47.454;18.966;2023-02-12T10:54:39;101990.83;;;12.17;47.49
77572;BME280;67214;47.454;18.966;2023-02-12T10:57:18;101985.47;;;11.72;48.37
77572;BME280;67214;47.454;18.966;2023-02-12T10:59:48;101988.78;;;11.19;49.55
77572;BME280;67214;47.454;18.966;2023-02-12T11:02:18;101985.11;;;11.38;49.87
77572;BME280;67214;47.454;18.966;2023-02-12T11:04:46;101984.45;;;11.26;49.36
77572;BME280;67214;47.454;18.966;2023-02-12T11:07:14;101979.45;;;11.04;50.01
77572;BME280;67214;47.454;18.966;2023-02-12T11:09:44;101978.13;;;11.04;49.97
77572;BME280;67214;47.454;18.966;2023-02-12T11:12:33;101980.93;;;10.92;49.57
77572;BME280;67214;47.454;18.966;2023-02-12T11:15:13;101979.42;;;10.71;49.07
77572;BME280;67214;47.454;18.966;2023-02-12T11:17:54;101989.34;;;10.42;50.40
77572;BME280;67214;47.454;18.966;2023-02-12T11:22:58;101982.52;;;10.19;52.25
77572;BME280;67214;47.454;18.966;2023-02-12T11:25:28;101988.44;;;10.15;51.89
77572;BME280;67214;47.454;18.966;2023-02-12T11:28:17;101997.45;;;10.11;52.51
77572;BME280;67214;47.454;18.966;2023-02-12T11:33:40;101997.48;;;9.47;54.69
77572;BME280;67214;47.454;18.966;2023-02-12T11:38:49;102004.97;;;9.47;55.10
77572;BME280;67214;47.454;18.966;2023-02-12T11:41:38;102007.10;;;9.49;54.21
77572;BME280;67214;47.454;18.966;2023-02-12T11:44:18;102004.05;;;9.48;54.60
77572;BME280;67214;47.454;18.966;2023-02-12T11:46:50;101990.41;;;9.47;54.37
77572;BME280;67214;47.454;18.966;2023-02-12T11:49:26;101997.77;;;9.59;54.53
77572;BME280;67214;47.454;18.966;2023-02-12T11:51:54;102007.76;;;9.63;54.42
77572;BME280;67214;47.454;18.966;2023-02-12T11:54:25;102000.09;;;9.75;53.95
77572;BME280;67214;47.454;18.966;2023-02-12T11:56:55;102004.53;;;9.75;54.09
77572;BME280;67214;47.454;18.966;2023-02-12T11:59:37;101998.49;;;9.82;53.38
77572;BME280;67214;47.454;18.966;2023-02-12T12:02:27;102004.90;;;9.86;53.33
77572;BME280;67214;47.454;18.966;2023-02-12T12:04:57;101995.80;;;10.00;53.75
77572;BME280;67214;47.454;18.966;2023-02-12T12:07:28;101984.66;;;10.11;53.29
77572;BME280;67214;47.454;18.966;2023-02-12T12:15:23;101989.02;;;10.22;52.05
77572;BME280;67214;47.454;18.966;2023-02-12T12:21:10;101986.48;;;10.10;52.69
77572;BME280;67214;47.454;18.966;2023-02-12T12:23:51;101979.73;;;10.65;51.42
77572;BME280;67214;47.454;18.966;2023-02-12T12:31:59;101972.91;;;11.42;48.74
77572;BME280;67214;47.454;18.966;2023-02-12T12:34:27;101973.36;;;12.20;47.96
77572;BME280;67214;47.454;18.966;2023-02-12T12:39:44;101962.53;;;12.60;46.12
77572;BME280;67214;47.454;18.966;2023-02-12T12:42:21;101960.66;;;12.69;45.71
77572;BME280;67214;47.454;18.966;2023-02-12T13:04:38;101975.79;;;11.22;48.98
77572;BME280;67214;47.454;18.966;2023-02-12T13:07:25;101981.05;;;10.82;50.03
77572;BME280;67214;47.454;18.966;2023-02-12T13:10:07;101974.06;;;10.47;50.96
77572;BME280;67214;47.454;18.966;2023-02-12T13:12:44;101972.47;;;10.17;51.88
77572;BME280;67214;47.454;18.966;2023-02-12T13:15:25;101978.34;;;10.05;51.57
77572;BME280;67214;47.454;18.966;2023-02-12T13:18:00;101981.05;;;9.86;52.74
77572;BME280;67214;47.454;18.966;2023-02-12T13:23:13;101972.09;;;9.61;53.27
77572;BME280;67214;47.454;18.966;2023-02-12T13:25:47;101969.56;;;9.58;53.23
77572;BME280;67214;47.454;18.966;2023-02-12T13:28:16;101979.14;;;9.52;53.84
77572;BME280;67214;47.454;18.966;2023-02-12T13:30:46;101977.11;;;9.49;54.80
77572;BME280;67214;47.454;18.966;2023-02-12T13:33:32;101977.66;;;9.55;55.07
77572;BME280;67214;47.454;18.966;2023-02-12T13:35:56;101980.02;;;9.43;56.00
77572;BME280;67214;47.454;18.966;2023-02-12T13:38:27;101981.55;;;9.38;55.92
77572;BME280;67214;47.454;18.966;2023-02-12T13:41:00;101984.20;;;9.38;55.58
77572;BME280;67214;47.454;18.966;2023-02-12T13:46:28;101984.25;;;9.28;56.31
77572;BME280;67214;47.454;18.966;2023-02-12T13:54:36;101999.08;;;9.22;56.95
77572;BME280;67214;47.454;18.966;2023-02-12T13:57:10;101993.93;;;9.19;56.27
77572;BME280;67214;47.454;18.966;2023-02-12T14:02:23;102003.86;;;9.14;56.14
77572;BME280;67214;47.454;18.966;2023-02-12T14:04:44;102004.47;;;9.10;56.19
77572;BME280;67214;47.454;18.966;2023-02-12T14:07:14;102000.49;;;9.10;56.15
77572;BME280;67214;47.454;18.966;2023-02-12T14:12:31;102004.44;;;8.92;56.29
77572;BME280;67214;47.454;18.966;2023-02-12T14:15:31;101992.53;;;8.92;56.47
77572;BME280;67214;47.454;18.966;2023-02-12T14:17:40;101999.69;;;8.79;56.62
77572;BME280;67214;47.454;18.966;2023-02-12T14:22:56;102010.91;;;8.64;57.17
77572;BME280;67214;47.454;18.966;2023-02-12T14:25:31;102003.70;;;8.58;57.54
77572;BME280;67214;47.454;18.966;2023-02-12T14:28:17;102011.38;;;8.54;57.84
77572;BME280;67214;47.454;18.966;2023-02-12T14:31:17;102009.59;;;8.54;57.76
77572;BME280;67214;47.454;18.966;2023-02-12T14:33:19;102017.39;;;8.47;57.90
77572;BME280;67214;47.454;18.966;2023-02-12T14:35:50;102024.30;;;8.39;58.13
77572;BME280;67214;47.454;18.966;2023-02-12T14:40:50;102026.37;;;8.43;57.78
77572;BME280;67214;47.454;18.966;2023-02-12T14:43:31;102030.08;;;8.39;57.80
77572;BME280;67214;47.454;18.966;2023-02-12T14:48:53;102039.61;;;8.31;58.45
77572;BME280;67214;47.454;18.966;2023-02-12T14:51:42;102038.58;;;8.24;58.29
77572;BME280;67214;47.454;18.966;2023-02-12T14:56:54;102040.98;;;8.08;58.73
77572;BME280;67214;47.454;18.966;2023-02-12T14:59:24;102045.58;;;8.03;58.64
77572;BME280;67214;47.454;18.966;2023-02-12T15:01:56;102040.02;;;7.99;58.94
77572;BME280;67214;47.454;18.966;2023-02-12T15:04:29;102043.66;;;7.97;58.84
77572;BME280;67214;47.454;18.966;2023-02-12T15:07:00;102041.27;;;7.90;59.06
77572;BME280;67214;47.454;18.966;2023-02-12T15:09:44;102040.50;;;7.87;59.14
77572;BME280;67214;47.454;18.966;2023-02-12T15:15:00;102044.55;;;7.85;58.68
77572;BME280;67214;47.454;18.966;2023-02-12T15:17:27;102048.84;;;7.88;58.66
77572;BME280;67214;47.454;18.966;2023-02-12T15:22:45;102051.56;;;7.86;58.74